Time;durP1;ratioP1;P1;durP2;ratioP2;P2;SDS_P1;SDS_P2;PMS_P1;PMS_P2;Temp;Humidity;BMP_temperature;BMP_pressure;BME280_temperature;BME280_humidity;BME280_pressure;Samples;Min_cycle;Max_cycle;Signal;HPM_P1;HPM_P2
2023/07/05 00:01:02;;;;;;;4.47;4.07;;;24.30;51.30;;;;;;4996030;28;20469;-48
2023/07/05 00:03:31;;;;;;;4.47;4.07;;;24.30;51.40;;;;;;4997636;28;20486;-49
2023/07/05 00:06:05;;;;;;;3.50;3.13;;;24.30;51.30;;;;;;4974129;28;20478;-49
2023/07/05 00:08:34;;;;;;;4.67;3.90;;;24.30;51.30;;;;;;4959167;28;20865;-48
2023/07/05 00:11:04;;;;;;;4.73;4.20;;;24.30;51.20;;;;;;4970072;28;20471;-48
2023/07/05 00:13:33;;;;;;;4.30;3.90;;;24.30;51.30;;;;;;4957678;28;20533;-49
2023/07/05 00:16:02;;;;;;;3.30;3.00;;;24.30;51.30;;;;;;4975892;28;20481;-48
2023/07/05 00:18:30;;;;;;;4.10;3.57;;;24.30;51.40;;;;;;4994617;28;20984;-48
2023/07/05 00:21:03;;;;;;;4.20;3.80;;;24.30;51.50;;;;;;4999776;28;20473;-49
2023/07/05 00:23:34;;;;;;;4.10;3.70;;;24.20;51.50;;;;;;4997459;28;20488;-48
2023/07/05 00:26:04;;;;;;;3.90;3.50;;;24.30;51.50;;;;;;4977573;28;20466;-49
2023/07/05 00:28:33;;;;;;;4.03;3.63;;;24.20;51.60;;;;;;4984361;28;20447;-49
2023/07/05 00:31:02;;;;;;;3.70;3.40;;;24.20;51.60;;;;;;4999271;28;20538;-49
2023/07/05 00:33:31;;;;;;;3.67;3.37;;;24.20;51.60;;;;;;4982207;28;20808;-48
2023/07/05 00:36:00;;;;;;;4.60;3.70;;;24.30;51.60;;;;;;4981179;28;20544;-48
2023/07/05 00:38:28;;;;;;;3.50;3.20;;;24.30;51.50;;;;;;4999682;28;20839;-49
2023/07/05 00:40:59;;;;;;;4.30;3.60;;;24.20;51.30;;;;;;5002931;28;20475;-49
2023/07/05 00:43:28;;;;;;;7.50;4.07;;;24.30;51.60;;;;;;4986835;28;20901;-49
2023/07/05 00:45:58;;;;;;;3.50;3.13;;;24.20;51.60;;;;;;4994175;28;20620;-48
2023/07/05 00:48:34;;;;;;;3.80;3.33;;;24.20;51.80;;;;;;4993781;28;20606;-48
2023/07/05 00:51:07;;;;;;;3.63;3.27;;;24.20;51.80;;;;;;5001905;28;20482;-48
2023/07/05 00:53:38;;;;;;;3.37;3.07;;;24.20;52.00;;;;;;4991438;28;20488;-48
2023/07/05 00:56:12;;;;;;;4.30;3.10;;;24.20;52.10;;;;;;4974597;28;20510;-49
2023/07/05 00:58:42;;;;;;;3.70;3.30;;;24.10;52.10;;;;;;4998965;28;20528;-48
2023/07/05 01:01:11;;;;;;;3.30;3.00;;;24.20;51.90;;;;;;4981524;28;20470;-49
2023/07/05 01:03:43;;;;;;;3.63;3.30;;;24.20;51.90;;;;;;4998229;28;20505;-48
2023/07/05 01:06:14;;;;;;;3.53;3.20;;;24.20;51.80;;;;;;4974954;28;21070;-48
2023/07/05 01:08:42;;;;;;;5.23;3.57;;;24.20;51.90;;;;;;4981208;28;20479;-49
2023/07/05 01:11:21;;;;;;;3.43;3.13;;;24.20;51.80;;;;;;4998037;28;20501;-49
2023/07/05 01:13:58;;;;;;;3.37;3.07;;;24.20;51.80;;;;;;4988272;28;20542;-48
2023/07/05 01:16:41;;;;;;;3.53;3.23;;;24.20;51.80;;;;;;4990335;28;20455;-49
2023/07/05 01:19:44;;;;;;;4.23;3.03;;;24.20;51.90;;;;;;4994312;28;20476;-48
2023/07/05 01:22:19;;;;;;;3.23;2.93;;;24.20;52.00;;;;;;4992335;28;20556;-49
2023/07/05 01:25:24;;;;;;;3.33;3.03;;;24.20;52.20;;;;;;4983805;28;20835;-48
2023/07/05 01:28:12;;;;;;;4.47;3.80;;;24.20;52.10;;;;;;4990884;28;20531;-48
2023/07/05 01:31:18;;;;;;;3.73;3.23;;;24.10;52.10;;;;;;4983984;28;20488;-49
2023/07/05 01:33:55;;;;;;;3.20;2.90;;;24.20;52.10;;;;;;4987770;28;21106;-49
2023/07/05 01:36:26;;;;;;;3.70;3.40;;;24.20;52.00;;;;;;4992472;28;20487;-48
2023/07/05 01:38:54;;;;;;;3.90;2.70;;;24.10;52.00;;;;;;4997497;28;20973;-48
2023/07/05 01:41:24;;;;;;;3.10;2.80;;;24.10;52.10;;;;;;5000120;28;20465;-49
2023/07/05 01:43:53;;;;;;;4.00;3.60;;;24.10;52.20;;;;;;4996926;28;20458;-49
2023/07/05 01:46:25;;;;;;;3.40;3.10;;;24.10;52.30;;;;;;4993017;28;20624;-48
2023/07/05 01:49:24;;;;;;;3.10;2.80;;;24.10;52.10;;;;;;4996018;28;20993;-49
2023/07/05 01:51:59;;;;;;;3.20;2.90;;;24.10;52.20;;;;;;4955406;28;20469;-48
2023/07/05 01:54:34;;;;;;;3.70;3.40;;;24.10;52.40;;;;;;4971203;28;20436;-49
2023/07/05 01:57:09;;;;;;;3.30;3.00;;;24.10;52.40;;;;;;4968260;28;20958;-49
2023/07/05 01:59:43;;;;;;;2.80;2.60;;;24.10;52.50;;;;;;4977142;28;20480;-48
2023/07/05 02:02:14;;;;;;;3.20;2.77;;;24.10;52.70;;;;;;4996986;28;20445;-49
2023/07/05 02:04:46;;;;;;;3.77;3.20;;;24.10;52.70;;;;;;5006385;28;20951;-49
2023/07/05 02:07:15;;;;;;;2.90;2.57;;;24.10;52.70;;;;;;4989884;28;20569;-49
2023/07/05 02:09:44;;;;;;;3.50;3.20;;;24.10;52.70;;;;;;4998456;28;20495;-48
2023/07/05 02:12:12;;;;;;;3.67;2.73;;;24.10;53.00;;;;;;4989250;28;20448;-49
2023/07/05 02:14:41;;;;;;;3.37;2.70;;;24.10;52.90;;;;;;4991435;28;20532;-49
2023/07/05 02:17:09;;;;;;;6.00;2.50;;;24.10;52.90;;;;;;4973953;28;20554;-49
2023/07/05 02:19:38;;;;;;;2.90;2.60;;;24.10;52.80;;;;;;4972689;28;20984;-49
2023/07/05 02:22:08;;;;;;;2.60;2.40;;;24.10;53.10;;;;;;5002129;28;20434;-49
2023/07/05 02:24:37;;;;;;;3.10;2.80;;;24.00;52.90;;;;;;4987098;28;21059;-48
2023/07/05 02:27:07;;;;;;;2.80;2.60;;;24.00;52.90;;;;;;4978877;28;20463;-49
2023/07/05 02:29:36;;;;;;;3.33;2.87;;;24.00;52.70;;;;;;4993636;28;20452;-49
2023/07/05 02:32:05;;;;;;;2.60;2.10;;;24.00;52.90;;;;;;4987299;28;20484;-49
2023/07/05 02:34:37;;;;;;;2.40;2.20;;;24.00;53.00;;;;;;4993744;28;20551;-49
2023/07/05 02:37:05;;;;;;;3.30;2.77;;;24.00;52.80;;;;;;4975495;28;20918;-48
2023/07/05 02:39:35;;;;;;;2.80;2.50;;;24.00;52.70;;;;;;4992008;28;20470;-48
2023/07/05 02:42:05;;;;;;;2.33;2.00;;;24.00;52.70;;;;;;4990922;28;20476;-49
2023/07/05 02:44:34;;;;;;;2.97;2.70;;;24.00;52.80;;;;;;5000881;28;20546;-49
2023/07/05 02:47:02;;;;;;;2.53;2.33;;;24.00;53.90;;;;;;4971397;28;20478;-49
2023/07/05 02:49:34;;;;;;;2.40;2.20;;;24.00;52.60;;;;;;4998481;28;20553;-48
2023/07/05 02:52:03;;;;;;;3.50;2.37;;;24.00;52.50;;;;;;4951134;28;20497;-49
2023/07/05 02:54:31;;;;;;;2.40;2.00;;;24.00;52.40;;;;;;4991021;28;20472;-48
2023/07/05 02:57:02;;;;;;;3.30;2.50;;;24.00;52.40;;;;;;4982022;28;20460;-48
2023/07/05 02:59:34;;;;;;;2.47;2.27;;;23.90;52.40;;;;;;4957206;28;20536;-49
2023/07/05 03:02:02;;;;;;;3.90;2.40;;;24.00;52.30;;;;;;4990173;28;20487;-49
2023/07/05 03:04:31;;;;;;;3.23;2.93;;;23.90;52.00;;;;;;4984634;28;20885;-48
2023/07/05 03:07:00;;;;;;;3.30;2.90;;;23.90;52.10;;;;;;4982156;28;20492;-48
2023/07/05 03:09:28;;;;;;;2.90;2.60;;;23.90;52.10;;;;;;4998092;28;20957;-49
2023/07/05 03:11:57;;;;;;;2.80;2.47;;;23.90;52.00;;;;;;4991352;28;20752;-48
2023/07/05 03:14:27;;;;;;;2.97;2.70;;;23.90;51.90;;;;;;4993343;28;20599;-48
2023/07/05 03:16:55;;;;;;;2.67;2.47;;;23.90;51.80;;;;;;4981545;28;20819;-48
2023/07/05 03:19:24;;;;;;;4.20;2.47;;;23.90;52.00;;;;;;4993659;28;20452;-48
2023/07/05 03:21:53;;;;;;;3.43;2.00;;;23.90;51.90;;;;;;4976976;28;20495;-49
2023/07/05 03:24:21;;;;;;;2.03;1.83;;;23.90;51.90;;;;;;4997854;28;21023;-49
2023/07/05 03:26:52;;;;;;;2.37;1.93;;;23.80;51.60;;;;;;4989653;28;20569;-49
2023/07/05 03:29:21;;;;;;;2.53;2.33;;;23.90;51.80;;;;;;4980743;28;20447;-48
2023/07/05 03:31:52;;;;;;;3.23;2.10;;;23.80;51.70;;;;;;4975054;28;20449;-48
2023/07/05 03:34:21;;;;;;;2.50;2.23;;;23.90;51.80;;;;;;4974191;28;20489;-48
2023/07/05 03:36:49;;;;;;;3.07;2.20;;;23.80;51.70;;;;;;4984597;28;20458;-49
2023/07/05 03:39:18;;;;;;;2.17;1.60;;;23.80;51.70;;;;;;4997434;28;20470;-49
2023/07/05 03:41:47;;;;;;;2.80;2.17;;;23.80;51.30;;;;;;4974731;28;20483;-49
2023/07/05 03:44:15;;;;;;;2.50;2.20;;;23.80;51.20;;;;;;4971484;28;20812;-48
2023/07/05 03:46:44;;;;;;;2.73;2.37;;;23.80;51.30;;;;;;4992345;28;20451;-49
2023/07/05 03:49:14;;;;;;;2.60;2.33;;;23.80;51.30;;;;;;4985191;28;20516;-49
2023/07/05 03:51:43;;;;;;;3.17;2.43;;;23.80;51.00;;;;;;4977336;28;20456;-48
2023/07/05 03:54:12;;;;;;;2.63;2.23;;;23.80;51.10;;;;;;4993514;28;20467;-49
2023/07/05 03:56:40;;;;;;;2.57;2.37;;;23.80;51.30;;;;;;4973985;28;20430;-48
2023/07/05 03:59:09;;;;;;;2.50;2.20;;;23.80;51.30;;;;;;4982774;28;20482;-49
2023/07/05 04:01:38;;;;;;;2.47;2.13;;;23.80;51.00;;;;;;4987376;28;20447;-49
2023/07/05 04:04:10;;;;;;;2.53;2.30;;;23.70;51.00;;;;;;4990055;28;20550;-49
2023/07/05 04:06:40;;;;;;;2.10;1.90;;;23.80;51.10;;;;;;5000106;28;20467;-49
2023/07/05 04:09:09;;;;;;;3.17;2.00;;;23.80;50.60;;;;;;4994932;28;20457;-49
2023/07/05 04:11:37;;;;;;;2.10;1.90;;;23.80;50.80;;;;;;4964907;28;20859;-48
2023/07/05 04:14:06;;;;;;;4.20;2.30;;;23.70;50.80;;;;;;4975055;28;20447;-48
2023/07/05 04:16:35;;;;;;;2.67;2.30;;;23.70;51.00;;;;;;4996767;28;20439;-49
2023/07/05 04:19:04;;;;;;;3.10;2.40;;;23.70;50.80;;;;;;4999470;28;20936;-48
2023/07/05 04:21:32;;;;;;;2.40;2.13;;;23.70;50.90;;;;;;4962409;28;20472;-49
2023/07/05 04:24:02;;;;;;;2.33;2.10;;;23.70;50.30;;;;;;4989215;28;20453;-49
2023/07/05 04:26:32;;;;;;;2.70;1.93;;;23.70;50.60;;;;;;4961131;28;20445;-48
2023/07/05 04:29:00;;;;;;;2.53;2.30;;;23.60;50.30;;;;;;4993300;28;20482;-48
2023/07/05 04:31:31;;;;;;;3.10;2.53;;;23.60;50.00;;;;;;4991677;28;20467;-49
2023/07/05 04:34:01;;;;;;;2.13;1.93;;;23.70;50.20;;;;;;4980365;28;20464;-49
2023/07/05 04:36:30;;;;;;;2.57;2.37;;;23.60;49.90;;;;;;4960171;28;20468;-49
2023/07/05 04:39:00;;;;;;;2.47;2.10;;;23.60;49.70;;;;;;4973077;28;20958;-49
2023/07/05 04:41:31;;;;;;;2.43;2.10;;;23.60;50.00;;;;;;4989955;28;21068;-49
2023/07/05 04:43:59;;;;;;;2.50;2.10;;;23.60;49.70;;;;;;4976170;28;20428;-48
2023/07/05 04:46:28;;;;;;;2.50;2.30;;;23.60;49.70;;;;;;4951840;28;20448;-49
2023/07/05 04:48:57;;;;;;;2.43;2.23;;;23.60;49.90;;;;;;4980166;28;20460;-49
2023/07/05 04:51:25;;;;;;;3.40;2.90;;;23.60;50.10;;;;;;4991193;28;20554;-49
2023/07/05 04:53:54;;;;;;;3.93;2.87;;;23.60;50.00;;;;;;4960688;28;20454;-49
2023/07/05 04:56:23;;;;;;;3.20;2.50;;;23.60;50.10;;;;;;4988815;28;20785;-48
2023/07/05 04:58:53;;;;;;;2.77;2.40;;;23.60;50.00;;;;;;4994833;28;20439;-48
2023/07/05 05:01:22;;;;;;;2.13;1.93;;;23.50;49.50;;;;;;4984772;28;21160;-48
2023/07/05 05:03:50;;;;;;;3.07;2.77;;;23.60;49.80;;;;;;4987209;28;21001;-49
2023/07/05 05:06:19;;;;;;;3.20;2.77;;;23.60;49.80;;;;;;4997826;28;20442;-48
2023/07/05 05:08:48;;;;;;;3.10;2.80;;;23.60;49.20;;;;;;4991348;28;20482;-48
2023/07/05 05:11:17;;;;;;;2.23;2.03;;;23.50;49.60;;;;;;4989667;28;20487;-48
2023/07/05 05:13:45;;;;;;;2.70;2.10;;;23.50;49.80;;;;;;4987360;28;20446;-48
2023/07/05 05:16:15;;;;;;;3.97;2.90;;;23.50;49.70;;;;;;4974877;28;20470;-49
2023/07/05 05:18:47;;;;;;;5.13;2.90;;;23.50;49.70;;;;;;4975478;28;20449;-49
2023/07/05 05:21:16;;;;;;;2.17;1.97;;;23.50;49.00;;;;;;4968230;28;20493;-48
2023/07/05 05:23:45;;;;;;;2.77;2.43;;;23.50;49.50;;;;;;4962050;28;20473;-48
2023/07/05 05:26:24;;;;;;;2.87;2.57;;;23.50;49.40;;;;;;4977483;28;20461;-49
2023/07/05 05:32:36;;;;;;;3.10;2.70;;;23.50;49.10;;;;;;4957740;28;20795;-48
2023/07/05 05:35:54;;;;;;;3.00;2.20;;;23.50;49.40;;;;;;4991202;28;20477;-50
2023/07/05 05:41:51;;;;;;;3.03;2.20;;;23.50;48.10;;;;;;5015396;28;20599;-50
2023/07/05 05:55:11;;;;;;;3.37;2.33;;;23.50;48.70;;;;;;4986436;28;20881;-49
2023/07/05 06:01:25;;;;;;;3.30;2.70;;;23.50;48.10;;;;;;5006883;28;21005;-49
2023/07/05 06:07:49;;;;;;;2.80;2.40;;;23.50;48.40;;;;;;4992145;28;20443;-49
2023/07/05 06:10:46;;;;;;;3.10;2.40;;;23.40;48.60;;;;;;5010657;28;20478;-49
2023/07/05 06:14:00;;;;;;;2.77;2.37;;;23.50;48.50;;;;;;4974086;28;20837;-49
2023/07/05 06:16:41;;;;;;;1.93;1.73;;;23.40;48.50;;;;;;4994663;28;21039;-49
2023/07/05 06:19:32;;;;;;;2.50;2.23;;;23.40;48.50;;;;;;4987196;28;20438;-49
2023/07/05 06:22:36;;;;;;;2.40;2.20;;;23.40;48.80;;;;;;4999585;28;20456;-49
2023/07/05 06:29:37;;;;;;;3.50;2.33;;;23.40;48.30;;;;;;4994494;28;20593;-49
2023/07/05 06:32:42;;;;;;;2.43;2.13;;;23.40;48.50;;;;;;4991778;28;20989;-49
2023/07/05 06:35:44;;;;;;;3.30;2.30;;;23.30;48.30;;;;;;5003773;28;20471;-50
2023/07/05 06:38:43;;;;;;;2.57;2.37;;;23.30;47.80;;;;;;4992562;28;20462;-48
2023/07/05 06:42:38;;;;;;;2.70;2.43;;;23.30;48.20;;;;;;4995014;28;20539;-50
2023/07/05 06:45:22;;;;;;;2.73;2.17;;;23.30;48.40;;;;;;5001911;28;20946;-50
2023/07/05 06:47:51;;;;;;;2.43;2.00;;;23.30;48.30;;;;;;4993650;28;20492;-49
2023/07/05 06:50:20;;;;;;;2.10;1.63;;;23.30;48.40;;;;;;4996247;28;20536;-49
2023/07/05 06:52:53;;;;;;;2.53;2.33;;;23.30;48.40;;;;;;4992244;28;20467;-50
2023/07/05 06:55:42;;;;;;;2.67;2.20;;;23.30;48.20;;;;;;4998805;28;20487;-49
2023/07/05 06:58:11;;;;;;;3.07;2.50;;;23.30;48.30;;;;;;4990186;28;20441;-49
2023/07/05 07:00:40;;;;;;;2.40;2.13;;;23.30;48.40;;;;;;5005859;28;20545;-49
2023/07/05 07:03:09;;;;;;;2.20;1.97;;;23.30;48.30;;;;;;4990894;28;20459;-50
2023/07/05 07:05:37;;;;;;;2.70;2.20;;;23.30;48.00;;;;;;4994371;28;20591;-49
2023/07/05 07:08:08;;;;;;;2.80;2.60;;;23.30;47.80;;;;;;5012068;28;20457;-49
2023/07/05 07:10:36;;;;;;;3.57;2.30;;;23.30;47.90;;;;;;4998578;28;20484;-49
2023/07/05 07:13:06;;;;;;;2.20;2.00;;;23.20;47.50;;;;;;5014049;28;20978;-49
2023/07/05 07:15:35;;;;;;;2.43;1.77;;;23.20;47.80;;;;;;5007577;28;20532;-49
2023/07/05 07:18:04;;;;;;;2.10;2.00;;;23.30;48.00;;;;;;5009974;28;20454;-50
2023/07/05 07:20:33;;;;;;;1.90;1.70;;;23.30;47.80;;;;;;5010832;28;20559;-49
2023/07/05 07:23:02;;;;;;;2.77;2.40;;;23.30;48.20;;;;;;5008263;28;20963;-49
2023/07/05 07:25:32;;;;;;;2.20;1.70;;;23.30;48.10;;;;;;5006850;28;20705;-50
2023/07/05 07:28:01;;;;;;;2.60;1.93;;;23.30;47.90;;;;;;4992448;28;20498;-49
2023/07/05 07:30:30;;;;;;;2.80;2.33;;;23.30;47.80;;;;;;5005298;28;20475;-49
2023/07/05 07:32:58;;;;;;;2.67;1.93;;;23.30;47.90;;;;;;5005101;28;20445;-49
2023/07/05 07:35:27;;;;;;;2.10;1.90;;;23.30;48.10;;;;;;5006528;28;20475;-49
2023/07/05 07:38:03;;;;;;;2.33;1.87;;;23.30;47.60;;;;;;4988884;28;20476;-49
2023/07/05 07:41:12;;;;;;;2.33;1.60;;;23.30;47.80;;;;;;4991674;28;21017;-50
2023/07/05 07:44:19;;;;;;;2.20;2.00;;;23.30;47.70;;;;;;4996388;28;20448;-50
2023/07/05 07:47:22;;;;;;;1.83;1.60;;;23.20;47.70;;;;;;4991976;28;20463;-49
2023/07/05 07:51:01;;;;;;;2.07;1.87;;;23.20;47.70;;;;;;4984436;28;20820;-48
2023/07/05 07:54:20;;;;;;;3.07;1.73;;;23.20;47.50;;;;;;4993552;28;20444;-49
2023/07/05 07:57:07;;;;;;;2.53;1.97;;;23.20;47.80;;;;;;5014936;28;20462;-50
2023/07/05 08:00:00;;;;;;;2.03;1.60;;;23.20;47.60;;;;;;4993529;28;20469;-49
2023/07/05 08:02:30;;;;;;;2.77;1.30;;;23.20;47.60;;;;;;4992305;28;21026;-50
2023/07/05 08:04:59;;;;;;;2.00;1.50;;;23.20;47.40;;;;;;4993775;28;20831;-49
2023/07/05 08:07:28;;;;;;;3.10;1.60;;;23.20;47.00;;;;;;4999229;28;20453;-49
2023/07/05 08:09:57;;;;;;;1.90;1.60;;;23.20;46.70;;;;;;5009736;28;20894;-49
2023/07/05 08:12:27;;;;;;;3.00;1.63;;;23.20;47.00;;;;;;4999143;28;20439;-52
2023/07/05 08:14:57;;;;;;;5.80;1.97;;;23.20;47.20;;;;;;5009180;28;20535;-46
2023/07/05 08:17:25;;;;;;;3.50;1.87;;;23.30;43.20;;;;;;5008147;28;20462;-48
2023/07/05 08:19:54;;;;;;;3.77;2.10;;;22.90;41.80;;;;;;4987577;28;20463;-49
2023/07/05 08:22:23;;;;;;;3.70;1.90;;;22.80;43.10;;;;;;4989629;28;20452;-49
2023/07/05 08:24:52;;;;;;;4.30;1.77;;;22.80;41.60;;;;;;4988953;28;20456;-49
2023/07/05 08:27:20;;;;;;;2.83;1.20;;;22.40;41.90;;;;;;4987307;28;20539;-49
2023/07/05 08:29:50;;;;;;;2.03;1.20;;;22.20;42.90;;;;;;4990539;28;20556;-49
2023/07/05 08:32:21;;;;;;;2.40;1.47;;;22.10;43.70;;;;;;5000166;28;20443;-49
2023/07/05 08:34:50;;;;;;;5.53;1.60;;;22.20;43.60;;;;;;5008167;28;20451;-48
2023/07/05 08:37:19;;;;;;;2.20;1.30;;;22.20;43.70;;;;;;5003451;28;20534;-49
2023/07/05 08:39:48;;;;;;;3.60;1.77;;;22.30;44.20;;;;;;5004228;28;20477;-49
2023/07/05 08:42:34;;;;;;;6.20;1.37;;;22.40;44.00;;;;;;4990069;28;20455;-48
2023/07/05 08:45:15;;;;;;;2.33;1.47;;;22.50;44.20;;;;;;5002289;28;20467;-49
2023/07/05 08:47:49;;;;;;;2.50;1.37;;;22.60;44.40;;;;;;5003683;28;20475;-49
2023/07/05 08:50:25;;;;;;;2.60;1.27;;;22.70;44.20;;;;;;4988086;28;20490;-49
2023/07/05 08:53:05;;;;;;;2.00;1.33;;;22.70;44.30;;;;;;4986817;28;20503;-49
2023/07/05 08:55:48;;;;;;;1.90;1.30;;;22.70;44.30;;;;;;5008274;28;20646;-48
2023/07/05 08:58:24;;;;;;;2.30;1.43;;;22.80;44.50;;;;;;4983213;28;20531;-47
2023/07/05 09:00:59;;;;;;;3.00;1.20;;;22.80;44.30;;;;;;4992626;28;20478;-48
2023/07/05 09:03:30;;;;;;;1.70;1.33;;;22.80;44.20;;;;;;4986222;28;20871;-49
2023/07/05 09:06:16;;;;;;;1.80;1.30;;;22.80;44.00;;;;;;5011801;28;20903;-48
2023/07/05 09:09:13;;;;;;;1.70;1.30;;;22.90;44.00;;;;;;4998251;28;20499;-49
2023/07/05 09:11:53;;;;;;;2.03;1.33;;;22.90;43.90;;;;;;5009988;28;20485;-49
2023/07/05 09:14:29;;;;;;;7.57;1.87;;;22.90;44.20;;;;;;5003263;28;20438;-50
2023/07/05 09:17:11;;;;;;;2.97;1.37;;;22.90;44.10;;;;;;4984163;28;20451;-48
2023/07/05 09:19:56;;;;;;;3.10;1.03;;;22.90;44.30;;;;;;4986838;28;20479;-48
2023/07/05 09:22:33;;;;;;;2.97;1.30;;;22.90;44.30;;;;;;4991691;28;20449;-49
2023/07/05 09:25:07;;;;;;;2.33;1.30;;;22.90;44.30;;;;;;4999658;28;20438;-49
2023/07/05 09:27:59;;;;;;;1.77;1.20;;;22.90;44.30;;;;;;4998063;28;20754;-48
2023/07/05 09:30:48;;;;;;;2.03;1.00;;;22.90;44.20;;;;;;4973492;28;20477;-50
2023/07/05 09:36:43;;;;;;;2.17;1.10;;;22.90;44.80;;;;;;4976285;28;20462;-50
2023/07/05 09:39:43;;;;;;;5.93;2.00;;;22.90;44.10;;;;;;4972345;28;20924;-49
2023/07/05 09:42:36;;;;;;;3.67;1.60;;;22.90;43.80;;;;;;4968882;28;20463;-48
2023/07/05 09:45:22;;;;;;;4.07;1.10;;;22.90;44.30;;;;;;4979800;28;20546;-49
2023/07/05 09:48:04;;;;;;;2.40;1.10;;;22.90;44.20;;;;;;4974069;28;20542;-49
2023/07/05 09:50:49;;;;;;;4.20;1.30;;;22.90;44.10;;;;;;4990780;28;20490;-48
2023/07/05 09:53:41;;;;;;;3.33;1.23;;;22.90;44.30;;;;;;4998078;28;20969;-48
2023/07/05 09:56:14;;;;;;;1.90;0.93;;;22.90;43.90;;;;;;5006752;28;20476;-48
2023/07/05 09:58:46;;;;;;;1.70;1.20;;;22.90;44.00;;;;;;5003057;28;20447;-49
2023/07/05 10:01:19;;;;;;;1.80;1.23;;;22.90;44.10;;;;;;5006454;28;20985;-50
2023/07/05 10:03:54;;;;;;;2.10;1.10;;;22.90;43.70;;;;;;4991152;28;20984;-48
2023/07/05 10:06:28;;;;;;;3.20;1.73;;;22.90;43.70;;;;;;4988737;28;20460;-49
2023/07/05 10:09:02;;;;;;;2.63;1.20;;;22.90;43.70;;;;;;4999741;28;20963;-47
2023/07/05 10:11:33;;;;;;;3.37;1.37;;;22.90;43.80;;;;;;5008388;28;20481;-48
2023/07/05 10:14:12;;;;;;;2.80;1.40;;;22.90;43.60;;;;;;5008287;28;20953;-50
2023/07/05 10:16:48;;;;;;;2.97;1.43;;;22.90;43.80;;;;;;4990049;28;20455;-48
2023/07/05 10:19:31;;;;;;;2.23;1.37;;;22.90;43.70;;;;;;4990562;28;20467;-49
2023/07/05 10:22:09;;;;;;;3.37;1.63;;;22.90;43.70;;;;;;5005076;28;20821;-48
2023/07/05 10:24:43;;;;;;;1.23;1.10;;;22.90;43.60;;;;;;5007577;28;21016;-49
2023/07/05 10:27:24;;;;;;;1.60;1.50;;;22.90;44.00;;;;;;4990668;28;20448;-49
2023/07/05 10:30:01;;;;;;;2.77;1.70;;;22.90;43.30;;;;;;5007731;28;21081;-48
2023/07/05 10:32:31;;;;;;;2.30;1.40;;;22.90;43.90;;;;;;4983417;28;20477;-49
2023/07/05 10:35:02;;;;;;;2.90;1.30;;;22.90;43.70;;;;;;5009519;28;20582;-50
2023/07/05 10:37:34;;;;;;;2.97;1.40;;;22.90;43.50;;;;;;4988427;28;20445;-48
2023/07/05 10:40:08;;;;;;;2.07;1.50;;;22.90;43.80;;;;;;5006033;28;20510;-49
2023/07/05 10:42:38;;;;;;;3.93;1.60;;;22.90;43.90;;;;;;4993625;28;21039;-50
2023/07/05 10:45:13;;;;;;;3.03;1.77;;;22.90;43.60;;;;;;5010500;28;20484;-49
2023/07/05 10:47:43;;;;;;;2.83;1.33;;;22.90;43.70;;;;;;4992665;28;20449;-48
2023/07/05 10:50:15;;;;;;;5.03;1.70;;;22.90;43.70;;;;;;4991973;28;20488;-49
2023/07/05 10:52:54;;;;;;;3.00;1.43;;;22.90;43.60;;;;;;5001366;28;20816;-50
2023/07/05 10:55:31;;;;;;;2.17;1.27;;;22.90;43.30;;;;;;4989575;28;20471;-49
2023/07/05 10:58:07;;;;;;;3.53;1.83;;;22.90;43.50;;;;;;5012246;28;20470;-49
2023/07/05 11:00:39;;;;;;;2.77;1.23;;;22.90;43.60;;;;;;4989592;28;20908;-50
2023/07/05 11:03:12;;;;;;;2.57;1.43;;;22.90;43.80;;;;;;4990065;28;20439;-49
2023/07/05 11:05:44;;;;;;;2.07;1.43;;;22.90;43.60;;;;;;5012449;28;20576;-48
2023/07/05 11:08:19;;;;;;;2.33;1.50;;;22.90;43.40;;;;;;4998232;28;20547;-50
2023/07/05 11:10:49;;;;;;;2.13;1.23;;;22.90;44.00;;;;;;4988704;28;20482;-50
2023/07/05 11:13:20;;;;;;;1.63;1.20;;;22.90;44.90;;;;;;4995969;28;21006;-49
2023/07/05 11:15:50;;;;;;;3.27;1.80;;;22.90;43.80;;;;;;4988289;28;20522;-48
2023/07/05 11:18:23;;;;;;;1.90;1.70;;;22.90;43.60;;;;;;5004407;28;20480;-50
2023/07/05 11:20:58;;;;;;;3.30;1.47;;;22.90;43.50;;;;;;4988455;28;20487;-50
2023/07/05 11:23:54;;;;;;;2.63;1.00;;;22.90;43.50;;;;;;5005186;28;20510;-50
2023/07/05 11:26:32;;;;;;;2.93;1.40;;;22.90;43.50;;;;;;5006270;28;20456;-49
2023/07/05 11:29:17;;;;;;;2.77;1.40;;;22.90;43.50;;;;;;5006357;28;20444;-50
2023/07/05 11:32:06;;;;;;;4.27;1.60;;;22.90;43.70;;;;;;5008765;28;20480;-49
2023/07/05 11:34:45;;;;;;;1.90;1.00;;;22.90;43.80;;;;;;5003341;28;20944;-49
2023/07/05 11:37:51;;;;;;;3.10;1.40;;;22.90;44.00;;;;;;4987236;28;21361;-48
2023/07/05 11:41:00;;;;;;;2.90;1.60;;;22.90;43.70;;;;;;4989670;28;20912;-50
2023/07/05 11:43:40;;;;;;;3.17;1.50;;;22.90;44.50;;;;;;4993718;28;20440;-49
2023/07/05 11:46:35;;;;;;;2.87;1.43;;;22.90;43.80;;;;;;5001700;28;20527;-48
2023/07/05 11:49:34;;;;;;;1.60;1.30;;;22.90;43.50;;;;;;5002997;28;20455;-49
2023/07/05 11:52:11;;;;;;;2.50;1.50;;;22.90;44.10;;;;;;4997579;28;20486;-48
2023/07/05 11:55:07;;;;;;;2.07;1.47;;;22.90;44.00;;;;;;4986511;28;20472;-49
2023/07/05 11:57:42;;;;;;;2.37;1.27;;;22.90;44.70;;;;;;5003915;28;20444;-50
2023/07/05 12:00:18;;;;;;;1.93;1.33;;;22.90;44.80;;;;;;4991561;28;20478;-48
2023/07/05 12:02:53;;;;;;;1.53;1.20;;;22.90;44.90;;;;;;4990846;28;20478;-48
2023/07/05 12:05:26;;;;;;;3.63;1.37;;;22.90;45.00;;;;;;5001527;28;20480;-48
2023/07/05 12:08:00;;;;;;;2.10;1.20;;;22.90;45.10;;;;;;4999553;28;20479;-49
2023/07/05 12:10:31;;;;;;;2.63;1.63;;;22.90;45.10;;;;;;4987029;28;20516;-48
2023/07/05 12:13:01;;;;;;;3.17;1.50;;;22.90;45.30;;;;;;5002380;28;20575;-48
2023/07/05 12:15:36;;;;;;;3.97;1.50;;;22.90;45.90;;;;;;5002557;28;21052;-49
2023/07/05 12:18:05;;;;;;;2.00;1.67;;;22.90;46.00;;;;;;5004221;28;20459;-49
2023/07/05 12:20:39;;;;;;;2.67;1.53;;;22.90;46.10;;;;;;4986540;28;22189;-50
2023/07/05 12:23:14;;;;;;;3.77;1.40;;;22.90;46.00;;;;;;5001908;28;20453;-49
2023/07/05 12:25:49;;;;;;;4.90;1.37;;;22.90;46.20;;;;;;4988760;28;20487;-50
2023/07/05 12:28:21;;;;;;;2.13;1.40;;;22.90;46.20;;;;;;4987570;28;20469;-50
2023/07/05 12:30:57;;;;;;;3.90;1.70;;;22.90;46.00;;;;;;4991205;28;20897;-50
2023/07/05 12:33:28;;;;;;;8.70;1.83;;;22.90;46.10;;;;;;5002318;28;20479;-49
2023/07/05 12:36:07;;;;;;;4.90;1.90;;;22.90;46.00;;;;;;5005764;28;20658;-49
2023/07/05 12:38:37;;;;;;;3.43;1.70;;;22.90;46.10;;;;;;4996267;28;20970;-50
2023/07/05 12:41:08;;;;;;;3.00;1.30;;;22.90;46.00;;;;;;5007178;28;20531;-49
2023/07/05 12:43:37;;;;;;;2.10;1.40;;;22.90;46.20;;;;;;5007424;28;20451;-49
2023/07/05 12:46:09;;;;;;;2.20;1.43;;;22.90;46.20;;;;;;4986543;28;20518;-50
2023/07/05 12:48:38;;;;;;;2.10;1.37;;;22.90;46.10;;;;;;5010557;28;20455;-50
2023/07/05 12:51:13;;;;;;;4.17;1.50;;;22.90;46.00;;;;;;4992741;28;20486;-48
2023/07/05 12:53:44;;;;;;;4.23;1.97;;;22.90;45.80;;;;;;4999685;28;20538;-49
2023/07/05 12:56:16;;;;;;;3.37;1.27;;;22.90;45.90;;;;;;5002242;28;20575;-50
2023/07/05 12:58:52;;;;;;;2.43;1.17;;;22.90;46.00;;;;;;4992133;28;20522;-50
2023/07/05 13:01:26;;;;;;;1.60;1.37;;;22.90;46.20;;;;;;5009397;28;20894;-49
2023/07/05 13:03:54;;;;;;;3.33;1.80;;;22.90;46.40;;;;;;4991737;28;20458;-50
2023/07/05 13:06:23;;;;;;;2.37;1.30;;;22.90;46.70;;;;;;4993183;28;20453;-48
2023/07/05 13:08:55;;;;;;;3.13;1.87;;;22.90;46.70;;;;;;5015542;28;20453;-50
2023/07/05 13:11:26;;;;;;;2.17;1.57;;;22.90;46.70;;;;;;4990970;28;20463;-50
2023/07/05 13:13:59;;;;;;;2.70;1.23;;;22.90;46.70;;;;;;5005176;28;20818;-49
2023/07/05 13:16:37;;;;;;;1.70;1.27;;;22.90;46.80;;;;;;4984104;28;20454;-50
2023/07/05 13:19:08;;;;;;;3.47;1.87;;;22.90;46.90;;;;;;5008094;28;20450;-48
2023/07/05 13:21:38;;;;;;;2.20;1.63;;;22.90;47.00;;;;;;4997057;28;20990;-50
2023/07/05 13:24:17;;;;;;;3.53;1.70;;;22.90;47.00;;;;;;4998688;28;21016;-48
2023/07/05 13:26:47;;;;;;;2.37;1.47;;;22.90;47.00;;;;;;4996286;28;20442;-50
2023/07/05 13:29:23;;;;;;;2.03;1.30;;;22.90;47.00;;;;;;5013351;28;20503;-48
2023/07/05 13:31:54;;;;;;;2.30;1.20;;;22.90;47.00;;;;;;4992953;28;20846;-49
2023/07/05 13:34:24;;;;;;;3.20;1.37;;;22.90;47.00;;;;;;5020487;28;20480;-49
2023/07/05 13:37:02;;;;;;;1.97;1.30;;;23.00;47.10;;;;;;5012948;28;20958;-49
2023/07/05 13:39:34;;;;;;;1.93;1.40;;;23.00;47.10;;;;;;4996276;28;20436;-50
2023/07/05 13:42:03;;;;;;;2.00;1.00;;;23.00;47.00;;;;;;5000305;28;20523;-49
2023/07/05 13:44:32;;;;;;;1.63;1.07;;;23.00;46.90;;;;;;4991269;28;20468;-50
2023/07/05 13:47:02;;;;;;;1.60;1.50;;;23.00;47.00;;;;;;5010733;28;20984;-49
2023/07/05 13:49:32;;;;;;;4.00;1.57;;;23.00;47.00;;;;;;5001864;28;20448;-48
2023/07/05 13:52:01;;;;;;;2.33;1.40;;;23.00;46.90;;;;;;5013564;28;20440;-47
2023/07/05 13:54:30;;;;;;;4.63;1.40;;;23.00;46.90;;;;;;5006871;28;21048;-50
2023/07/05 13:56:59;;;;;;;2.20;0.93;;;23.00;46.80;;;;;;4995948;28;20424;-48
2023/07/05 13:59:28;;;;;;;2.10;1.27;;;23.00;46.90;;;;;;5001248;28;20490;-48
2023/07/05 14:01:57;;;;;;;1.87;1.50;;;23.00;46.90;;;;;;5001094;28;20547;-48